Time;durP1;ratioP1;P1;durP2;ratioP2;P2;SDS_P1;SDS_P2;PMS_P1;PMS_P2;Temp;Humidity;BMP_temperature;BMP_pressure;BME280_temperature;BME280_humidity;BME280_pressure;Samples;Min_cycle;Max_cycle;Signal;HPM_P1;HPM_P2
2022/10/08 00:00:05;;;;;;;;;;;;;;;21.31;32.82;98535.28;4900280;29;902;-82
2022/10/08 00:02:36;;;;;;;;;;;;;;;21.06;33.29;98546.19;4844510;29;917;-83
2022/10/08 00:05:02;;;;;;;;;;;;;;;20.89;33.33;98544.44;4829562;29;893;-83
2022/10/08 00:07:27;;;;;;;;;;;;;;;20.84;33.55;98551.38;4845147;29;812;-83
2022/10/08 00:09:53;;;;;;;;;;;;;;;20.66;33.56;98545.97;4828707;29;1256;-82
2022/10/08 00:12:50;;;;;;;;;;;;;;;20.68;33.60;98542.72;4844619;29;972;-83
2022/10/08 00:15:16;;;;;;;;;;;;;;;20.58;33.83;98538.03;4844464;29;1967;-82
2022/10/08 00:17:41;;;;;;;;;;;;;;;20.92;33.72;98532.25;4844736;29;894;-83
2022/10/08 00:20:08;;;;;;;;;;;;;;;20.86;34.74;98536.81;4844355;29;824;-83
2022/10/08 00:22:34;;;;;;;;;;;;;;;21.28;33.56;98541.78;4859601;29;857;-83
2022/10/08 00:24:59;;;;;;;;;;;;;;;21.05;33.73;98530.44;4844479;29;804;-82
2022/10/08 00:27:25;;;;;;;;;;;;;;;21.04;33.26;98540.16;4844442;29;791;-83
2022/10/08 00:29:53;;;;;;;;;;;;;;;21.00;33.38;98536.59;4859959;29;1130;-83
2022/10/08 00:32:19;;;;;;;;;;;;;;;21.02;33.30;98534.91;4844347;29;796;-83
2022/10/08 00:34:45;;;;;;;;;;;;;;;20.89;33.42;98524.66;4844102;29;1907;-82
2022/10/08 00:37:11;;;;;;;;;;;;;;;20.69;33.72;98531.00;4876508;29;920;-82
2022/10/08 00:39:36;;;;;;;;;;;;;;;20.53;34.02;98530.81;4905916;29;1220;-83
2022/10/08 00:42:01;;;;;;;;;;;;;;;20.68;33.80;98528.59;4958823;29;720;-83
2022/10/08 00:44:50;;;;;;;;;;;;;;;20.48;34.33;98517.16;4941965;29;1221;-83
2022/10/08 00:47:18;;;;;;;;;;;;;;;20.73;33.56;98520.44;4942447;29;1122;-82
2022/10/08 00:49:48;;;;;;;;;;;;;;;21.03;33.89;98524.41;4942274;29;993;-83
2022/10/08 00:52:13;;;;;;;;;;;;;;;21.10;34.28;98518.66;4937717;29;1098;-83
2022/10/08 00:54:38;;;;;;;;;;;;;;;21.24;33.89;98521.25;4937566;29;1911;-82
2022/10/08 00:57:05;;;;;;;;;;;;;;;21.54;33.30;98525.19;4937423;29;883;-83
2022/10/08 00:59:30;;;;;;;;;;;;;;;21.40;33.20;98525.44;4921949;29;1131;-83
2022/10/08 01:01:56;;;;;;;;;;;;;;;21.26;33.55;98515.94;4937522;29;807;-82
2022/10/08 01:04:21;;;;;;;;;;;;;;;21.14;33.48;98513.72;4937658;29;950;-83
2022/10/08 01:06:46;;;;;;;;;;;;;;;21.01;33.30;98504.22;4937328;29;943;-83
2022/10/08 01:09:13;;;;;;;;;;;;;;;20.81;33.52;98496.47;4937417;29;1097;-83
2022/10/08 01:11:42;;;;;;;;;;;;;;;20.90;33.35;98492.28;4921497;29;1085;-83
2022/10/08 01:14:11;;;;;;;;;;;;;;;20.85;33.68;98495.63;4905756;29;1976;-83
2022/10/08 01:16:49;;;;;;;;;;;;;;;20.88;33.30;98498.41;4937611;29;820;-83
2022/10/08 01:23:08;;;;;;;;;;;;;;;20.98;34.25;98485.28;4942991;29;920;-83
2022/10/08 01:25:54;;;;;;;;;;;;;;;21.28;33.59;98490.81;4957034;29;1229;-83
2022/10/08 01:28:23;;;;;;;;;;;;;;;20.96;34.21;98484.91;4941647;29;749;-83
2022/10/08 01:31:16;;;;;;;;;;;;;;;20.88;33.89;98483.44;4958612;29;783;-83
2022/10/08 01:33:47;;;;;;;;;;;;;;;20.76;33.90;98477.13;4939186;29;1988;-83
2022/10/08 01:36:13;;;;;;;;;;;;;;;20.70;33.89;98478.06;4941090;29;836;-83
2022/10/08 01:38:39;;;;;;;;;;;;;;;20.80;33.58;98477.88;4941328;29;855;-83
2022/10/08 01:41:06;;;;;;;;;;;;;;;20.97;33.07;98476.00;4941680;29;1086;-83
2022/10/08 01:43:32;;;;;;;;;;;;;;;20.70;33.59;98466.75;4941314;29;736;-83
2022/10/08 01:45:59;;;;;;;;;;;;;;;20.79;33.60;98470.63;4941314;29;713;-83
2022/10/08 01:48:26;;;;;;;;;;;;;;;20.65;33.48;98465.19;4941223;29;772;-83
2022/10/08 01:50:52;;;;;;;;;;;;;;;20.69;33.72;98463.13;4941361;29;753;-82
2022/10/08 01:53:17;;;;;;;;;;;;;;;20.81;34.45;98465.34;4958647;29;779;-83
2022/10/08 01:55:44;;;;;;;;;;;;;;;21.18;33.85;98463.50;4941362;29;1891;-83
2022/10/08 01:58:11;;;;;;;;;;;;;;;21.22;33.51;98472.75;4941618;29;783;-83
2022/10/08 02:00:36;;;;;;;;;;;;;;;20.98;33.65;98463.44;4940990;29;831;-83
2022/10/08 02:03:02;;;;;;;;;;;;;;;20.99;33.35;98461.44;4940777;29;756;-83
2022/10/08 02:05:28;;;;;;;;;;;;;;;20.80;33.61;98460.91;4958594;29;803;-82
2022/10/08 02:07:54;;;;;;;;;;;;;;;20.77;33.61;98456.09;4940893;29;831;-82
2022/10/08 02:10:20;;;;;;;;;;;;;;;20.64;33.95;98457.16;4940980;29;1184;-83
2022/10/08 02:12:46;;;;;;;;;;;;;;;20.70;33.76;98450.56;4918118;29;1338;-82
2022/10/08 02:15:15;;;;;;;;;;;;;;;20.96;34.50;98459.47;4902083;29;1911;-82
2022/10/08 02:21:18;;;;;;;;;;;;;;;21.05;33.73;98465.38;4917816;29;759;-83
2022/10/08 02:23:45;;;;;;;;;;;;;;;21.03;33.73;98462.16;4917788;29;772;-83
2022/10/08 02:26:12;;;;;;;;;;;;;;;20.88;33.72;98452.31;4901992;29;1115;-83
2022/10/08 02:28:43;;;;;;;;;;;;;;;20.92;33.38;98453.06;4901865;29;860;-82
2022/10/08 02:34:46;;;;;;;;;;;;;;;20.91;34.27;98454.28;4921046;29;1911;-82
2022/10/08 02:37:13;;;;;;;;;;;;;;;21.08;34.58;98450.34;4890107;29;1143;-83
2022/10/08 02:39:40;;;;;;;;;;;;;;;21.35;33.59;98455.16;4902555;29;1303;-83
2022/10/08 02:42:07;;;;;;;;;;;;;;;21.34;33.36;98454.38;4902458;29;1234;-82
2022/10/08 02:44:34;;;;;;;;;;;;;;;20.98;33.83;98454.16;4932964;29;1213;-82
2022/10/08 02:47:00;;;;;;;;;;;;;;;20.93;33.65;98454.66;4939820;29;868;-83
2022/10/08 02:49:27;;;;;;;;;;;;;;;20.95;33.41;98449.38;4939769;29;836;-83
2022/10/08 02:51:52;;;;;;;;;;;;;;;20.90;33.53;98452.69;4939955;29;846;-83
2022/10/08 02:54:18;;;;;;;;;;;;;;;20.99;33.47;98450.13;4939459;29;1975;-82
2022/10/08 02:56:50;;;;;;;;;;;;;;;20.73;33.93;98455.41;4917882;29;1061;-83
2022/10/08 02:59:16;;;;;;;;;;;;;;;21.09;33.61;98451.97;4920889;29;898;-83
2022/10/08 03:02:01;;;;;;;;;;;;;;;21.28;34.04;98459.69;4904777;29;949;-82
2022/10/08 03:04:42;;;;;;;;;;;;;;;21.42;34.05;98449.38;4904830;29;1125;-82
2022/10/08 03:07:09;;;;;;;;;;;;;;;21.17;33.86;98450.59;4904842;29;837;-82
2022/10/08 03:09:38;;;;;;;;;;;;;;;21.12;33.81;98442.59;4906350;29;771;-82
2022/10/08 03:12:04;;;;;;;;;;;;;;;20.74;34.40;98440.00;4939165;29;1329;-83
2022/10/08 03:14:51;;;;;;;;;;;;;;;20.99;33.45;98447.28;4939601;29;1993;-82
2022/10/08 03:17:21;;;;;;;;;;;;;;;21.03;33.51;98445.97;4923937;29;1490;-83
2022/10/08 03:19:46;;;;;;;;;;;;;;;21.07;33.30;98446.72;4939121;29;737;-83
2022/10/08 03:22:12;;;;;;;;;;;;;;;20.70;34.00;98442.09;4939139;29;855;-82
2022/10/08 03:24:37;;;;;;;;;;;;;;;20.90;33.59;98438.56;4939104;29;682;-83
2022/10/08 03:27:03;;;;;;;;;;;;;;;20.94;33.36;98436.47;4927599;29;896;-82
2022/10/08 03:29:28;;;;;;;;;;;;;;;20.93;33.62;98440.50;4943075;29;863;-82
2022/10/08 03:31:54;;;;;;;;;;;;;;;20.88;33.75;98435.34;4943042;29;1094;-82
2022/10/08 03:34:19;;;;;;;;;;;;;;;21.21;33.85;98436.41;4959965;29;1984;-83
2022/10/08 03:36:45;;;;;;;;;;;;;;;21.08;34.68;98437.00;4942944;29;748;-82
2022/10/08 03:39:11;;;;;;;;;;;;;;;21.23;34.33;98425.44;4943043;29;787;-83
2022/10/08 03:41:36;;;;;;;;;;;;;;;21.11;34.22;98424.03;4943094;29;792;-82
2022/10/08 03:44:01;;;;;;;;;;;;;;;21.00;34.55;98424.22;4959901;28;689;-82
2022/10/08 03:50:02;;;;;;;;;;;;;;;20.84;34.29;98420.47;4959898;29;695;-82
2022/10/08 03:52:28;;;;;;;;;;;;;;;20.77;34.20;98433.47;4942630;29;843;-83
2022/10/08 03:54:54;;;;;;;;;;;;;;;20.71;34.43;98429.56;4942858;29;1926;-82
2022/10/08 03:57:19;;;;;;;;;;;;;;;20.90;34.32;98430.88;4943094;29;793;-82
2022/10/08 03:59:44;;;;;;;;;;;;;;;20.89;34.24;98432.09;4942884;29;1137;-82
2022/10/08 04:02:10;;;;;;;;;;;;;;;20.98;35.62;98426.66;4942873;29;1110;-83
2022/10/08 04:04:35;;;;;;;;;;;;;;;21.11;35.29;98432.53;4959595;29;910;-82
2022/10/08 04:07:01;;;;;;;;;;;;;;;21.14;34.91;98414.69;4943013;29;1159;-83
2022/10/08 04:09:26;;;;;;;;;;;;;;;20.93;34.78;98412.22;4959515;29;765;-82
2022/10/08 04:11:51;;;;;;;;;;;;;;;21.05;34.48;98420.09;4938130;29;1203;-83
2022/10/08 04:14:17;;;;;;;;;;;;;;;20.89;34.63;98429.28;4938322;29;1918;-82
2022/10/08 04:16:42;;;;;;;;;;;;;;;20.86;34.29;98418.81;4938638;29;1289;-83
2022/10/08 04:19:09;;;;;;;;;;;;;;;20.93;34.00;98423.53;4922246;29;1105;-82
2022/10/08 04:21:35;;;;;;;;;;;;;;;20.92;33.91;98421.94;4938491;29;870;-83
2022/10/08 04:24:00;;;;;;;;;;;;;;;20.79;34.19;98419.72;4922511;29;1165;-83
2022/10/08 04:30:00;;;;;;;;;;;;;;;20.73;34.07;98423.50;4937834;29;609;-83
2022/10/08 04:32:26;;;;;;;;;;;;;;;20.89;33.84;98428.47;4937873;29;814;-83
2022/10/08 04:34:51;;;;;;;;;;;;;;;20.90;34.05;98430.88;4938425;29;1910;-83
2022/10/08 04:37:17;;;;;;;;;;;;;;;20.89;35.22;98425.66;4937805;29;832;-82
2022/10/08 04:39:42;;;;;;;;;;;;;;;21.19;34.63;98430.34;4937735;29;693;-83
2022/10/08 04:42:08;;;;;;;;;;;;;;;21.26;34.39;98422.53;4942158;29;789;-83
2022/10/08 04:44:33;;;;;;;;;;;;;;;21.02;34.33;98421.75;4959165;29;866;-82
2022/10/08 04:46:58;;;;;;;;;;;;;;;20.88;34.43;98421.19;4942837;29;1280;-82
2022/10/08 04:49:24;;;;;;;;;;;;;;;20.85;33.86;98420.03;4942157;29;1247;-82
2022/10/08 04:51:50;;;;;;;;;;;;;;;20.90;33.66;98424.41;4941871;29;795;-82
2022/10/08 04:54:15;;;;;;;;;;;;;;;20.89;34.92;98428.47;4959078;29;1914;-82
2022/10/08 04:56:41;;;;;;;;;;;;;;;21.30;33.61;98431.81;4958121;28;748;-82
2022/10/08 05:02:41;;;;;;;;;;;;;;;20.79;34.02;98436.69;4958213;29;661;-82
2022/10/08 05:05:07;;;;;;;;;;;;;;;20.84;33.46;98443.09;4939482;29;1109;-82
2022/10/08 05:07:32;;;;;;;;;;;;;;;20.75;33.44;98430.31;4957221;29;1211;-82
2022/10/08 05:09:58;;;;;;;;;;;;;;;20.68;33.48;98440.94;4939680;29;1216;-82
2022/10/08 05:12:23;;;;;;;;;;;;;;;20.50;33.87;98441.19;4932409;29;1188;-82
2022/10/08 05:14:48;;;;;;;;;;;;;;;20.71;33.44;98440.88;4956998;29;1918;-82
2022/10/08 05:17:14;;;;;;;;;;;;;;;20.63;33.44;98445.03;4957354;29;1275;-83
2022/10/08 05:19:39;;;;;;;;;;;;;;;20.57;33.58;98452.38;4957067;29;1298;-82
2022/10/08 05:22:05;;;;;;;;;;;;;;;20.46;33.72;98446.91;4935347;29;1284;-82
2022/10/08 05:24:30;;;;;;;;;;;;;;;20.80;34.05;98443.94;4919395;29;1243;-82
2022/10/08 05:26:56;;;;;;;;;;;;;;;21.10;33.30;98441.44;4919527;29;1252;-82
2022/10/08 05:29:21;;;;;;;;;;;;;;;21.04;32.94;98446.81;4935071;29;1287;-82
2022/10/08 05:31:47;;;;;;;;;;;;;;;20.96;32.82;98434.00;4935943;29;1208;-82
2022/10/08 05:34:12;;;;;;;;;;;;;;;20.86;32.88;98430.13;4937254;29;1918;-82
2022/10/08 05:36:38;;;;;;;;;;;;;;;20.72;32.83;98439.63;4935684;29;1136;-82
2022/10/08 05:39:03;;;;;;;;;;;;;;;20.85;32.45;98439.84;4919294;29;1327;-82
2022/10/08 05:41:29;;;;;;;;;;;;;;;21.13;33.01;98444.19;4919339;29;1165;-82
2022/10/08 05:43:55;;;;;;;;;;;;;;;21.29;32.52;98452.00;4935334;29;1174;-82
2022/10/08 05:46:24;;;;;;;;;;;;;;;21.02;32.30;98449.25;4935297;29;1172;-82
2022/10/08 05:48:56;;;;;;;;;;;;;;;20.77;33.04;98456.09;4919444;29;1413;-83
2022/10/08 05:51:22;;;;;;;;;;;;;;;20.51;33.27;98454.09;4932761;29;1153;-82
2022/10/08 05:53:48;;;;;;;;;;;;;;;20.74;32.64;98467.50;4951116;29;1997;-82
2022/10/08 05:56:14;;;;;;;;;;;;;;;20.86;32.91;98446.28;4939254;29;1223;-82
2022/10/08 05:58:39;;;;;;;;;;;;;;;21.10;32.69;98445.06;4936923;29;1212;-82
2022/10/08 06:01:20;;;;;;;;;;;;;;;21.26;32.04;98447.22;4939476;29;892;-83
2022/10/08 06:03:49;;;;;;;;;;;;;;;21.16;32.14;98449.00;4940502;29;779;-83
2022/10/08 06:06:14;;;;;;;;;;;;;;;20.96;32.37;98451.78;4939742;29;989;-83
2022/10/08 06:08:40;;;;;;;;;;;;;;;20.49;33.20;98456.56;4941676;29;1141;-83
2022/10/08 06:11:05;;;;;;;;;;;;;;;20.74;32.52;98451.31;4943538;29;1135;-82
2022/10/08 06:13:31;;;;;;;;;;;;;;;20.88;32.28;98455.13;4927484;29;1154;-82
2022/10/08 06:15:57;;;;;;;;;;;;;;;21.03;32.49;98445.97;4940515;29;1903;-82
2022/10/08 06:18:23;;;;;;;;;;;;;;;21.02;32.71;98454.91;4924322;29;1023;-82
2022/10/08 06:20:48;;;;;;;;;;;;;;;21.22;32.19;98457.81;4939673;29;798;-83
2022/10/08 06:23:13;;;;;;;;;;;;;;;21.06;31.98;98455.66;4908214;29;874;-82
2022/10/08 06:25:39;;;;;;;;;;;;;;;20.80;32.82;98446.78;4924456;29;1106;-81
2022/10/08 06:28:04;;;;;;;;;;;;;;;20.76;32.59;98460.19;4923810;29;764;-82
2022/10/08 06:30:30;;;;;;;;;;;;;;;20.77;32.55;98458.16;4939860;29;787;-82
2022/10/08 06:32:55;;;;;;;;;;;;;;;20.55;32.92;98454.84;4923233;29;829;-82
2022/10/08 06:35:23;;;;;;;;;;;;;;;20.58;32.80;98456.84;4920443;29;1903;-83
2022/10/08 06:37:48;;;;;;;;;;;;;;;20.93;33.18;98463.13;4937176;29;1179;-82
2022/10/08 06:40:14;;;;;;;;;;;;;;;21.24;32.18;98467.47;4920451;29;781;-83
2022/10/08 06:42:39;;;;;;;;;;;;;;;21.26;31.83;98452.88;4920572;29;822;-83
2022/10/08 06:45:05;;;;;;;;;;;;;;;20.72;32.77;98459.44;4904434;29;713;-82
2022/10/08 06:47:30;;;;;;;;;;;;;;;20.79;32.52;98453.66;4954279;29;1018;-83
2022/10/08 06:49:56;;;;;;;;;;;;;;;20.66;32.79;98449.81;4942250;29;893;-82
2022/10/08 06:52:21;;;;;;;;;;;;;;;20.65;32.66;98453.88;4958759;29;807;-82
2022/10/08 06:54:46;;;;;;;;;;;;;;;20.88;32.33;98453.13;4958075;29;1895;-83
2022/10/08 06:57:12;;;;;;;;;;;;;;;21.18;32.28;98443.69;4958847;29;1288;-82
2022/10/08 06:59:37;;;;;;;;;;;;;;;21.30;32.30;98453.66;4942752;29;787;-82
2022/10/08 07:02:03;;;;;;;;;;;;;;;21.22;32.21;98441.63;4958525;29;879;-82
2022/10/08 07:04:28;;;;;;;;;;;;;;;21.04;32.65;98441.16;4958796;29;832;-82
2022/10/08 07:06:54;;;;;;;;;;;;;;;20.72;33.04;98442.47;4958641;29;802;-82
2022/10/08 07:09:19;;;;;;;;;;;;;;;20.98;32.40;98442.84;4958705;29;1168;-82
2022/10/08 07:11:45;;;;;;;;;;;;;;;20.55;33.19;98449.19;4942437;29;1216;-82
2022/10/08 07:14:10;;;;;;;;;;;;;;;20.67;33.07;98459.91;4957904;29;1962;-82
2022/10/08 07:16:36;;;;;;;;;;;;;;;20.67;32.74;98450.63;4957969;29;952;-82
2022/10/08 07:19:01;;;;;;;;;;;;;;;20.66;33.09;98449.81;4941455;29;733;-82
2022/10/08 07:21:27;;;;;;;;;;;;;;;20.97;33.11;98452.56;4942226;29;839;-82
2022/10/08 07:23:52;;;;;;;;;;;;;;;21.43;32.25;98445.31;4943063;29;1138;-82
2022/10/08 07:26:19;;;;;;;;;;;;;;;21.06;32.58;98455.66;4942056;29;1225;-83
2022/10/08 07:28:48;;;;;;;;;;;;;;;20.91;32.77;98454.28;4957805;29;826;-83
2022/10/08 07:31:14;;;;;;;;;;;;;;;20.57;33.46;98443.09;4957767;29;1004;-83
2022/10/08 07:33:40;;;;;;;;;;;;;;;20.62;33.15;98451.91;4957728;28;1152;-83
2022/10/08 07:36:06;;;;;;;;;;;;;;;20.57;33.05;98445.94;4957950;29;1915;-83
2022/10/08 07:38:32;;;;;;;;;;;;;;;20.95;32.27;98443.72;4957507;29;1234;-83
2022/10/08 07:40:57;;;;;;;;;;;;;;;21.06;32.66;98444.34;4942182;29;871;-83
2022/10/08 07:43:23;;;;;;;;;;;;;;;21.13;32.25;98444.19;4942147;29;1155;-83
2022/10/08 07:45:49;;;;;;;;;;;;;;;21.06;32.29;98444.34;4941953;29;1389;-83
2022/10/08 07:48:17;;;;;;;;;;;;;;;20.87;32.88;98425.25;4926750;29;1244;-83
2022/10/08 07:50:42;;;;;;;;;;;;;;;20.88;32.75;98432.50;4957896;29;1116;-83
2022/10/08 07:53:07;;;;;;;;;;;;;;;20.71;32.96;98417.44;4957884;29;975;-82
2022/10/08 07:55:33;;;;;;;;;;;;;;;20.86;32.62;98432.16;4957878;29;2085;-83
2022/10/08 07:57:58;;;;;;;;;;;;;;;20.89;32.54;98422.81;4925909;29;1261;-83
2022/10/08 08:00:24;;;;;;;;;;;;;;;20.95;33.49;98421.09;4941453;29;882;-83
2022/10/08 08:02:49;;;;;;;;;;;;;;;21.28;32.58;98417.25;4957774;29;815;-83
2022/10/08 08:05:15;;;;;;;;;;;;;;;21.09;32.65;98420.84;4957439;29;812;-83
2022/10/08 08:07:40;;;;;;;;;;;;;;;20.96;32.77;98417.03;4957909;29;1304;-83
2022/10/08 08:10:06;;;;;;;;;;;;;;;20.84;32.87;98415.63;4958071;29;1030;-83
2022/10/08 08:12:31;;;;;;;;;;;;;;;20.86;32.99;98412.34;4959420;29;732;-83
2022/10/08 08:14:57;;;;;;;;;;;;;;;20.67;33.24;98414.66;4959109;29;1997;-83
2022/10/08 08:17:22;;;;;;;;;;;;;;;20.81;33.59;98411.59;4942856;29;795;-83
2022/10/08 08:19:48;;;;;;;;;;;;;;;21.21;32.97;98411.72;4958053;29;851;-83
2022/10/08 08:22:13;;;;;;;;;;;;;;;21.19;32.51;98416.19;4942500;29;752;-83
2022/10/08 08:24:39;;;;;;;;;;;;;;;21.02;32.91;98420.97;4959430;29;847;-83
2022/10/08 08:27:04;;;;;;;;;;;;;;;21.13;32.37;98430.06;4942410;29;1197;-84
2022/10/08 08:29:30;;;;;;;;;;;;;;;20.89;32.98;98422.81;4942324;29;1080;-83
2022/10/08 08:31:55;;;;;;;;;;;;;;;20.76;33.04;98423.41;4942189;29;1230;-83
2022/10/08 08:34:22;;;;;;;;;;;;;;;20.77;32.81;98427.81;4937902;29;1985;-83
2022/10/08 08:36:48;;;;;;;;;;;;;;;20.70;33.13;98411.00;4937963;29;1224;-83
2022/10/08 08:39:20;;;;;;;;;;;;;;;20.91;33.44;98415.50;4922179;29;1335;-83
2022/10/08 08:41:49;;;;;;;;;;;;;;;21.28;32.57;98414.41;4922274;29;1246;-83
2022/10/08 08:44:23;;;;;;;;;;;;;;;21.02;32.65;98409.63;4922188;29;1084;-83
2022/10/08 08:46:52;;;;;;;;;;;;;;;20.95;32.71;98415.44;4937520;29;764;-83
2022/10/08 08:49:38;;;;;;;;;;;;;;;20.89;33.02;98405.84;4937513;29;898;-83
2022/10/08 08:52:04;;;;;;;;;;;;;;;20.96;32.66;98405.72;4937127;29;1192;-84
2022/10/08 08:54:30;;;;;;;;;;;;;;;20.88;32.58;98407.06;4902566;29;1906;-83
2022/10/08 08:56:55;;;;;;;;;;;;;;;20.83;32.79;98413.19;4902461;29;864;-83
2022/10/08 08:59:27;;;;;;;;;;;;;;;20.75;32.68;98393.53;4918312;29;838;-83
2022/10/08 09:01:55;;;;;;;;;;;;;;;20.77;33.55;98407.25;4899004;29;911;-83
2022/10/08 09:04:22;;;;;;;;;;;;;;;21.13;32.72;98410.25;4885435;29;880;-83
2022/10/08 09:06:48;;;;;;;;;;;;;;;21.23;32.39;98408.44;4918680;29;788;-83
2022/10/08 09:09:16;;;;;;;;;;;;;;;20.99;32.56;98404.88;4918585;29;906;-83
2022/10/08 09:11:43;;;;;;;;;;;;;;;20.79;33.08;98402.75;4902631;29;1085;-83
2022/10/08 09:14:08;;;;;;;;;;;;;;;20.77;32.75;98393.09;4918303;29;1996;-83
2022/10/08 09:16:34;;;;;;;;;;;;;;;20.85;32.75;98402.28;4902354;29;1348;-83
2022/10/08 09:18:59;;;;;;;;;;;;;;;20.72;32.70;98402.06;4918084;29;1265;-83
2022/10/08 09:21:25;;;;;;;;;;;;;;;21.17;32.70;98405.31;4912273;29;1326;-83
2022/10/08 09:23:50;;;;;;;;;;;;;;;21.41;32.10;98403.28;4899898;29;1194;-83
2022/10/08 09:26:16;;;;;;;;;;;;;;;21.36;32.10;98395.31;4916623;29;1279;-83
2022/10/08 09:28:46;;;;;;;;;;;;;;;20.92;32.53;98399.31;4916425;29;1295;-83
2022/10/08 09:31:19;;;;;;;;;;;;;;;20.97;32.65;98398.81;4916618;29;1367;-83
2022/10/08 09:33:45;;;;;;;;;;;;;;;20.89;32.44;98388.88;4951182;29;1303;-83
2022/10/08 09:36:11;;;;;;;;;;;;;;;20.87;32.49;98380.00;4941526;29;1911;-83
2022/10/08 09:38:36;;;;;;;;;;;;;;;20.96;32.31;98374.59;4940372;29;728;-83
2022/10/08 09:41:15;;;;;;;;;;;;;;;20.86;32.68;98372.75;4941205;29;1267;-83
2022/10/08 09:43:41;;;;;;;;;;;;;;;20.69;32.73;98361.31;4941287;29;1152;-83
2022/10/08 09:46:10;;;;;;;;;;;;;;;20.90;33.16;98368.63;4943649;29;1224;-83
2022/10/08 09:48:36;;;;;;;;;;;;;;;21.04;32.89;98373.25;4927082;29;1221;-83
2022/10/08 09:51:02;;;;;;;;;;;;;;;21.43;31.98;98374.53;4930271;29;1271;-83
2022/10/08 09:53:30;;;;;;;;;;;;;;;21.00;32.30;98381.78;4940847;29;1344;-84
2022/10/08 09:56:05;;;;;;;;;;;;;;;20.81;32.83;98377.66;4941019;29;1910;-83
2022/10/08 09:58:34;;;;;;;;;;;;;;;20.76;32.39;98369.69;4940860;29;1281;-84
2022/10/08 10:01:04;;;;;;;;;;;;;;;20.65;32.61;98368.28;4940799;29;752;-83
2022/10/08 10:03:30;;;;;;;;;;;;;;;20.91;32.04;98375.88;4940512;29;878;-83
2022/10/08 10:05:56;;;;;;;;;;;;;;;20.79;32.74;98370.88;4952955;29;1109;-83
2022/10/08 10:08:39;;;;;;;;;;;;;;;21.26;32.64;98351.78;4957605;29;1239;-83
2022/10/08 10:11:05;;;;;;;;;;;;;;;21.37;31.96;98350.81;4954680;29;1181;-83
2022/10/08 10:13:34;;;;;;;;;;;;;;;21.17;32.18;98347.94;4957694;29;1247;-83
2022/10/08 10:16:09;;;;;;;;;;;;;;;20.91;32.82;98358.13;4954842;29;1981;-83
2022/10/08 10:18:36;;;;;;;;;;;;;;;20.61;33.28;98344.91;4958264;29;1275;-83
2022/10/08 10:21:04;;;;;;;;;;;;;;;20.66;32.91;98345.22;4957634;29;1375;-83
2022/10/08 10:23:38;;;;;;;;;;;;;;;20.93;32.67;98347.94;4958582;29;1224;-83
2022/10/08 10:26:04;;;;;;;;;;;;;;;21.02;32.35;98341.75;4945108;29;1141;-83
2022/10/08 10:28:30;;;;;;;;;;;;;;;21.11;32.35;98327.84;4961569;29;487;-83
2022/10/08 10:31:15;;;;;;;;;;;;;;;21.22;32.48;98331.25;4961760;29;772;-83
2022/10/08 10:33:48;;;;;;;;;;;;;;;21.31;32.15;98331.50;4921016;29;1295;-83
2022/10/08 10:36:14;;;;;;;;;;;;;;;20.96;32.70;98332.16;4920916;29;1907;-83
2022/10/08 10:39:02;;;;;;;;;;;;;;;20.97;32.53;98328.09;4920991;29;1215;-84
2022/10/08 10:41:38;;;;;;;;;;;;;;;20.94;32.46;98320.50;4920803;29;693;-83
2022/10/08 10:44:04;;;;;;;;;;;;;;;20.90;32.77;98328.25;4920839;29;976;-83
2022/10/08 10:46:43;;;;;;;;;;;;;;;21.01;32.24;98326.00;4920765;29;697;-83
2022/10/08 10:49:14;;;;;;;;;;;;;;;20.69;32.76;98330.22;4920932;29;822;-83
2022/10/08 10:51:58;;;;;;;;;;;;;;;20.79;33.37;98320.75;4917691;29;1094;-83
2022/10/08 10:54:39;;;;;;;;;;;;;;;21.22;32.62;98314.25;4914383;29;1911;-83
2022/10/08 10:57:34;;;;;;;;;;;;;;;21.30;31.92;98307.28;4906293;29;1245;-83
2022/10/08 11:00:08;;;;;;;;;;;;;;;20.98;32.74;98310.69;4880071;29;1102;-84
2022/10/08 11:03:06;;;;;;;;;;;;;;;20.94;32.86;98306.34;4858096;29;1213;-84
2022/10/08 11:05:32;;;;;;;;;;;;;;;20.84;32.71;98285.53;4809009;29;1211;-84
2022/10/08 11:08:16;;;;;;;;;;;;;;;21.01;32.13;98289.22;4794117;29;886;-84
2022/10/08 11:10:41;;;;;;;;;;;;;;;20.86;32.42;98290.72;4794288;29;1198;-84
2022/10/08 11:13:07;;;;;;;;;;;;;;;20.80;33.21;98296.88;4794562;29;750;-84
2022/10/08 11:15:42;;;;;;;;;;;;;;;21.21;32.33;98280.75;4794224;29;1911;-84
2022/10/08 11:18:13;;;;;;;;;;;;;;;21.11;32.27;98271.25;4794276;29;947;-83
2022/10/08 11:20:40;;;;;;;;;;;;;;;21.03;32.30;98272.59;4809781;29;1060;-84
2022/10/08 11:23:08;;;;;;;;;;;;;;;20.84;32.57;98273.41;4809556;29;875;-84
2022/10/08 11:25:47;;;;;;;;;;;;;;;20.96;32.24;98275.59;4809331;29;748;-84
2022/10/08 11:28:15;;;;;;;;;;;;;;;20.89;32.19;98258.78;4779525;29;942;-84
2022/10/08 11:30:41;;;;;;;;;;;;;;;20.60;32.73;98252.84;4809672;29;1097;-83
2022/10/08 11:33:08;;;;;;;;;;;;;;;20.60;32.66;98259.28;4794252;29;1125;-83
2022/10/08 11:35:35;;;;;;;;;;;;;;;20.58;32.59;98250.47;4800070;29;1919;-84
2022/10/08 11:41:39;;;;;;;;;;;;;;;21.34;32.11;98233.59;4899056;29;954;-84
2022/10/08 11:44:05;;;;;;;;;;;;;;;21.13;32.27;98234.00;4922104;29;807;-83
2022/10/08 11:46:31;;;;;;;;;;;;;;;20.90;32.49;98232.06;4921080;29;752;-84
2022/10/08 11:48:57;;;;;;;;;;;;;;;20.81;32.59;98235.47;4921161;29;780;-84
2022/10/08 11:51:22;;;;;;;;;;;;;;;20.92;32.25;98236.06;4908609;29;1204;-84
2022/10/08 11:54:06;;;;;;;;;;;;;;;20.90;32.60;98226.41;4958720;29;1195;-84
2022/10/08 11:56:33;;;;;;;;;;;;;;;20.85;32.77;98229.75;4958264;29;1246;-84
2022/10/08 11:58:59;;;;;;;;;;;;;;;21.01;33.01;98232.66;4941540;29;1275;-84
2022/10/08 12:01:24;;;;;;;;;;;;;;;21.27;32.14;98216.75;4939739;29;1267;-84
2022/10/08 12:04:16;;;;;;;;;;;;;;;21.37;31.92;98223.44;4942601;29;791;-84
2022/10/08 12:06:42;;;;;;;;;;;;;;;21.25;31.78;98222.84;4922128;29;1114;-84
2022/10/08 12:09:09;;;;;;;;;;;;;;;21.04;32.46;98209.16;4921449;29;1208;-83
2022/10/08 12:11:34;;;;;;;;;;;;;;;20.99;32.36;98215.31;4920507;29;1276;-85
2022/10/08 12:14:23;;;;;;;;;;;;;;;20.96;32.21;98219.00;4928648;29;1907;-83
2022/10/08 12:16:54;;;;;;;;;;;;;;;21.01;32.61;98212.84;4846390;29;1270;-84
2022/10/08 12:19:32;;;;;;;;;;;;;;;20.84;32.44;98194.22;4844610;29;1058;-84
2022/10/08 12:22:00;;;;;;;;;;;;;;;20.93;32.51;98208.56;4860292;29;1021;-84
2022/10/08 12:24:38;;;;;;;;;;;;;;;20.79;32.61;98215.31;4845066;29;844;-83
2022/10/08 12:27:15;;;;;;;;;;;;;;;20.70;32.35;98207.41;4844826;29;1238;-84
2022/10/08 12:29:58;;;;;;;;;;;;;;;20.81;32.15;98201.53;4844948;29;789;-83
2022/10/08 12:32:25;;;;;;;;;;;;;;;21.11;32.64;98209.00;4844913;29;769;-84
2022/10/08 12:34:50;;;;;;;;;;;;;;;21.41;31.70;98204.34;4829502;29;1990;-84
2022/10/08 12:37:35;;;;;;;;;;;;;;;21.31;31.67;98195.66;4844523;29;784;-83
2022/10/08 12:40:02;;;;;;;;;;;;;;;20.99;32.32;98198.34;4860225;29;1343;-84
2022/10/08 12:42:29;;;;;;;;;;;;;;;20.92;32.53;98206.97;4859756;29;804;-84
2022/10/08 12:45:12;;;;;;;;;;;;;;;20.89;32.47;98196.53;4859892;29;1127;-84
2022/10/08 12:47:46;;;;;;;;;;;;;;;20.86;32.29;98197.41;4859799;29;945;-84
2022/10/08 12:50:30;;;;;;;;;;;;;;;20.92;32.13;98201.31;4859808;29;792;-84
2022/10/08 12:53:00;;;;;;;;;;;;;;;20.74;32.28;98193.19;4873457;29;883;-83
2022/10/08 12:55:25;;;;;;;;;;;;;;;20.80;32.12;98189.44;4939037;29;1910;-83
2022/10/08 12:57:50;;;;;;;;;;;;;;;20.65;32.70;98188.13;4940071;29;788;-84
2022/10/08 13:00:24;;;;;;;;;;;;;;;20.68;32.60;98186.47;4938483;29;815;-81
2022/10/08 13:03:02;;;;;;;;;;;;;;;21.15;32.21;98189.91;4939084;29;1249;-84
2022/10/08 13:05:29;;;;;;;;;;;;;;;21.18;32.06;98180.53;4940052;29;759;-83
2022/10/08 13:07:54;;;;;;;;;;;;;;;20.93;32.40;98191.59;4938961;29;1326;-84
2022/10/08 13:10:24;;;;;;;;;;;;;;;20.92;32.27;98184.34;4938619;29;1062;-84
2022/10/08 13:12:59;;;;;;;;;;;;;;;20.80;32.47;98182.97;4938736;29;1146;-84
2022/10/08 13:15:25;;;;;;;;;;;;;;;20.67;32.64;98185.63;4939398;29;1910;-83
2022/10/08 13:21:31;;;;;;;;;;;;;;;20.74;32.55;98182.69;4939891;29;658;-84
2022/10/08 13:24:01;;;;;;;;;;;;;;;20.73;32.20;98183.13;4938701;29;733;-83
2022/10/08 13:26:39;;;;;;;;;;;;;;;21.15;32.41;98178.59;4938629;29;728;-84
2022/10/08 13:29:20;;;;;;;;;;;;;;;21.48;31.25;98182.31;4956387;29;1200;-84
2022/10/08 13:31:51;;;;;;;;;;;;;;;21.08;31.74;98175.91;4932178;29;1248;-83
2022/10/08 13:34:17;;;;;;;;;;;;;;;20.86;32.41;98174.78;4957913;29;1895;-83
2022/10/08 13:36:49;;;;;;;;;;;;;;;20.85;32.18;98184.50;4941915;29;1232;-83